Time;durP1;ratioP1;P1;durP2;ratioP2;P2;SDS_P1;SDS_P2;PMS_P1;PMS_P2;Temp;Humidity;BMP_temperature;BMP_pressure;BME280_temperature;BME280_humidity;BME280_pressure;Samples;Min_cycle;Max_cycle;Signal;HPM_P1;HPM_P2
2021/07/24 00:00:20;;;;;;;;;;;17.60;99.90;;;;;;5104546;28;19924;-57
2021/07/24 00:03:09;;;;;;;;;;;17.50;99.90;;;;;;5098491;28;19924;-60
2021/07/24 00:06:00;;;;;;;;;;;17.60;99.90;;;;;;5110283;28;19930;-58
2021/07/24 00:08:49;;;;;;;;;;;17.50;99.90;;;;;;5109383;28;20068;-57
2021/07/24 00:11:39;;;;;;;;;;;17.50;99.90;;;;;;5110054;28;19923;-57
2021/07/24 00:14:30;;;;;;;;;;;17.40;99.90;;;;;;5107713;28;19923;-59
2021/07/24 00:17:21;;;;;;;;;;;17.30;99.90;;;;;;5105575;28;20023;-57
2021/07/24 00:20:12;;;;;;;;;;;17.20;99.90;;;;;;5112196;28;20026;-57
2021/07/24 00:23:00;;;;;;;;;;;17.20;99.90;;;;;;5122689;28;19981;-58
2021/07/24 00:25:49;;;;;;;;;;;17.10;99.90;;;;;;5128776;28;19963;-58
2021/07/24 00:28:39;;;;;;;;;;;17.10;99.90;;;;;;5121161;28;19946;-58
2021/07/24 00:31:28;;;;;;;;;;;17.10;99.90;;;;;;5124097;27;19930;-57
2021/07/24 00:34:43;;;;;;;;;;;17.00;99.90;;;;;;5121748;28;19935;-57
2021/07/24 00:37:31;;;;;;;;;;;17.00;99.90;;;;;;5124326;28;19983;-58
2021/07/24 00:40:24;;;;;;;;;;;17.00;99.90;;;;;;5127966;28;20140;-57
2021/07/24 00:43:13;;;;;;;;;;;17.00;99.90;;;;;;5133791;28;19924;-59
2021/07/24 00:46:03;;;;;;;;;;;17.00;99.90;;;;;;5114979;28;19974;-58
2021/07/24 00:48:55;;;;;;;;;;;17.00;99.90;;;;;;5120638;28;19991;-57
2021/07/24 00:51:56;;;;;;;;;;;17.00;99.90;;;;;;5115424;28;19955;-57
2021/07/24 00:54:44;;;;;;;;;;;16.90;99.90;;;;;;5124463;28;19923;-57
2021/07/24 00:57:33;;;;;;;;;;;16.90;99.90;;;;;;5121441;28;19912;-57
2021/07/24 01:00:22;;;;;;;;;;;16.90;99.90;;;;;;5114658;28;20272;-58
2021/07/24 01:03:11;;;;;;;;;;;16.80;99.90;;;;;;5115747;28;19935;-58
2021/07/24 01:06:01;;;;;;;;;;;16.80;99.90;;;;;;5119305;28;19989;-57
2021/07/24 01:08:51;;;;;;;;;;;16.80;99.90;;;;;;5085801;28;19924;-57
2021/07/24 01:11:40;;;;;;;;;;;16.70;99.90;;;;;;5109672;28;19939;-57
2021/07/24 01:14:31;;;;;;;;;;;16.60;99.90;;;;;;5103522;28;19931;-57
2021/07/24 01:17:19;;;;;;;;;;;16.60;99.90;;;;;;5095609;28;20394;-57
2021/07/24 01:20:12;;;;;;;;;;;16.60;99.90;;;;;;5097298;28;20002;-57
2021/07/24 01:23:02;;;;;;;;;;;16.60;99.90;;;;;;5105165;28;19924;-57
2021/07/24 01:25:54;;;;;;;;;;;16.60;99.90;;;;;;5101185;28;20267;-57
2021/07/24 01:28:47;;;;;;;;;;;16.60;99.90;;;;;;5095767;28;20372;-57
2021/07/24 01:31:38;;;;;;;;;;;16.60;99.90;;;;;;5099147;28;19931;-57
2021/07/24 01:34:27;;;;;;;;;;;16.60;99.90;;;;;;5093731;28;19955;-57
2021/07/24 01:37:18;;;;;;;;;;;16.50;99.90;;;;;;5089690;28;19924;-57
2021/07/24 01:40:12;;;;;;;;;;;16.50;99.90;;;;;;5087879;28;19924;-57
2021/07/24 01:43:01;;;;;;;;;;;16.40;99.90;;;;;;5103887;28;19969;-57
2021/07/24 01:45:50;;;;;;;;;;;16.30;99.90;;;;;;5102086;28;20014;-57
2021/07/24 01:48:45;;;;;;;;;;;16.30;99.90;;;;;;5097474;28;19923;-57
2021/07/24 01:54:48;;;;;;;;;;;16.20;99.90;;;;;;5106205;28;19930;-57
2021/07/24 01:57:41;;;;;;;;;;;16.10;99.90;;;;;;5106310;28;19932;-57
2021/07/24 02:00:31;;;;;;;;;;;16.10;99.90;;;;;;5090824;28;19931;-58
2021/07/24 02:03:46;;;;;;;;;;;16.10;99.90;;;;;;5094843;28;20042;-60
2021/07/24 02:07:01;;;;;;;;;;;16.00;99.90;;;;;;5106490;28;19924;-58
2021/07/24 02:09:59;;;;;;;;;;;16.10;99.90;;;;;;5108870;28;19973;-58
2021/07/24 02:13:20;;;;;;;;;;;16.20;99.90;;;;;;5095468;28;20267;-58
2021/07/24 02:16:11;;;;;;;;;;;16.10;99.90;;;;;;5091170;28;19984;-58
2021/07/24 02:22:13;;;;;;;;;;;16.00;99.90;;;;;;5098273;28;19930;-58
2021/07/24 02:25:11;;;;;;;;;;;16.00;99.90;;;;;;5102580;28;19923;-58
2021/07/24 02:28:07;;;;;;;;;;;15.90;99.90;;;;;;5114242;28;19924;-58
2021/07/24 02:30:57;;;;;;;;;;;15.90;99.90;;;;;;5094757;28;20424;-57
2021/07/24 02:33:46;;;;;;;;;;;16.00;99.90;;;;;;5099200;28;19932;-58
2021/07/24 02:36:40;;;;;;;;;;;16.00;99.90;;;;;;5100487;28;19928;-58
2021/07/24 02:39:28;;;;;;;;;;;15.90;99.90;;;;;;5098540;28;19924;-57
2021/07/24 02:42:18;;;;;;;;;;;15.80;99.90;;;;;;5109475;28;19935;-57
2021/07/24 02:45:09;;;;;;;;;;;15.80;99.90;;;;;;5094730;28;19938;-57
2021/07/24 02:47:59;;;;;;;;;;;15.80;99.90;;;;;;5088280;28;19928;-58
2021/07/24 02:50:47;;;;;;;;;;;15.70;99.90;;;;;;5099690;28;19971;-57
2021/07/24 02:53:36;;;;;;;;;;;15.60;99.90;;;;;;5106125;28;19924;-57
2021/07/24 02:56:26;;;;;;;;;;;15.60;99.90;;;;;;5100138;28;19950;-57
2021/07/24 02:59:15;;;;;;;;;;;15.60;99.90;;;;;;5109866;28;19924;-58
2021/07/24 03:02:03;;;;;;;;;;;15.50;99.90;;;;;;5101132;28;20299;-58
2021/07/24 03:04:53;;;;;;;;;;;15.50;99.90;;;;;;5107937;28;19993;-59
2021/07/24 03:07:42;;;;;;;;;;;15.40;99.90;;;;;;5108086;28;20373;-58
2021/07/24 03:10:31;;;;;;;;;;;15.40;99.90;;;;;;5107667;28;19924;-59
2021/07/24 03:13:21;;;;;;;;;;;15.50;99.90;;;;;;5091810;28;20559;-59
2021/07/24 03:16:09;;;;;;;;;;;15.40;99.90;;;;;;5099628;28;19981;-59
2021/07/24 03:22:12;;;;;;;;;;;15.30;99.90;;;;;;5109576;28;19931;-59
2021/07/24 03:25:01;;;;;;;;;;;15.30;99.90;;;;;;5110786;28;19923;-61
2021/07/24 03:27:51;;;;;;;;;;;15.20;99.90;;;;;;5108139;28;20320;-58
2021/07/24 03:30:39;;;;;;;;;;;15.30;99.90;;;;;;5103088;28;20018;-59
2021/07/24 03:33:28;;;;;;;;;;;15.30;99.90;;;;;;5107881;28;19928;-59
2021/07/24 03:36:17;;;;;;;;;;;15.20;99.90;;;;;;5104967;28;19924;-59
2021/07/24 03:39:08;;;;;;;;;;;15.20;99.90;;;;;;5107709;28;19931;-58
2021/07/24 03:41:57;;;;;;;;;;;15.30;99.90;;;;;;5104369;28;19935;-60
2021/07/24 03:44:45;;;;;;;;;;;15.20;99.90;;;;;;5106837;28;19923;-59
2021/07/24 03:47:34;;;;;;;;;;;15.20;99.90;;;;;;5104802;28;19931;-58
2021/07/24 03:50:22;;;;;;;;;;;15.10;99.90;;;;;;5103687;28;20274;-60
2021/07/24 03:53:11;;;;;;;;;;;15.10;99.90;;;;;;5107946;28;20295;-59
2021/07/24 03:56:01;;;;;;;;;;;15.10;99.90;;;;;;5110039;28;20018;-59
2021/07/24 03:58:53;;;;;;;;;;;15.10;99.90;;;;;;5104969;28;19984;-58
2021/07/24 04:01:44;;;;;;;;;;;15.10;99.90;;;;;;5094606;28;19930;-58
2021/07/24 04:04:33;;;;;;;;;;;15.10;99.90;;;;;;5106146;27;19924;-59
2021/07/24 04:07:22;;;;;;;;;;;15.10;99.90;;;;;;5109364;28;19931;-59
2021/07/24 04:10:12;;;;;;;;;;;15.10;99.90;;;;;;5104166;28;19924;-59
2021/07/24 04:13:03;;;;;;;;;;;15.20;99.90;;;;;;5107013;28;19924;-58
2021/07/24 04:15:52;;;;;;;;;;;15.20;99.90;;;;;;5105732;28;19923;-58
2021/07/24 04:18:44;;;;;;;;;;;15.30;99.90;;;;;;5111734;28;20467;-58
2021/07/24 04:21:33;;;;;;;;;;;15.40;99.90;;;;;;5125267;28;19925;-57
2021/07/24 04:24:22;;;;;;;;;;;15.50;99.90;;;;;;5118992;28;19924;-58
2021/07/24 04:27:10;;;;;;;;;;;15.60;99.90;;;;;;5108843;28;19935;-57
2021/07/24 04:30:03;;;;;;;;;;;15.70;99.90;;;;;;5103432;28;19927;-58
2021/07/24 04:32:52;;;;;;;;;;;15.80;99.90;;;;;;5101856;28;20015;-57
2021/07/24 04:35:44;;;;;;;;;;;15.90;99.90;;;;;;5102230;28;20026;-58
2021/07/24 04:38:33;;;;;;;;;;;15.90;99.90;;;;;;5103883;28;19923;-58
2021/07/24 04:41:22;;;;;;;;;;;16.00;99.90;;;;;;5106429;28;19931;-58
2021/07/24 04:44:10;;;;;;;;;;;16.00;99.90;;;;;;5104739;28;20434;-58
2021/07/24 04:47:00;;;;;;;;;;;16.10;99.90;;;;;;5101931;28;19927;-57
2021/07/24 04:49:49;;;;;;;;;;;16.20;99.90;;;;;;5096361;28;20372;-58
2021/07/24 04:52:38;;;;;;;;;;;16.30;99.90;;;;;;5100453;28;19931;-58
2021/07/24 04:55:27;;;;;;;;;;;16.40;99.90;;;;;;5104833;28;19959;-57
2021/07/24 04:58:15;;;;;;;;;;;16.40;99.90;;;;;;5108420;28;19924;-57
2021/07/24 05:01:04;;;;;;;;;;;16.50;99.90;;;;;;5100804;28;19935;-57
2021/07/24 05:03:54;;;;;;;;;;;16.50;99.90;;;;;;5102708;28;19934;-57
2021/07/24 05:06:43;;;;;;;;;;;16.60;99.90;;;;;;5111197;27;19924;-58
2021/07/24 05:09:32;;;;;;;;;;;16.80;99.90;;;;;;5106025;28;20016;-58
2021/07/24 05:12:21;;;;;;;;;;;17.00;99.90;;;;;;5106130;28;19931;-58
2021/07/24 05:15:10;;;;;;;;;;;17.20;99.90;;;;;;5101305;28;19928;-57
2021/07/24 05:17:58;;;;;;;;;;;17.50;99.90;;;;;;5096438;28;19928;-58
2021/07/24 05:20:49;;;;;;;;;;;17.70;99.90;;;;;;5104238;28;19955;-58
2021/07/24 05:23:37;;;;;;;;;;;18.00;99.90;;;;;;5107962;28;20415;-58
2021/07/24 05:26:26;;;;;;;;;;;18.20;99.90;;;;;;5102434;28;19931;-58
2021/07/24 05:29:15;;;;;;;;;;;18.60;99.90;;;;;;5098525;28;19975;-58
2021/07/24 05:32:03;;;;;;;;;;;18.80;99.90;;;;;;5088077;28;19931;-58
2021/07/24 05:34:52;;;;;;;;;;;19.00;99.90;;;;;;5097981;28;19935;-58
2021/07/24 05:37:42;;;;;;;;;;;19.20;99.90;;;;;;5082569;28;19925;-58
2021/07/24 05:40:31;;;;;;;;;;;19.40;99.90;;;;;;5073250;28;20007;-57
2021/07/24 05:43:19;;;;;;;;;;;19.70;99.90;;;;;;5075380;28;19928;-59
2021/07/24 05:46:08;;;;;;;;;;;20.00;99.90;;;;;;5065444;28;19924;-58
2021/07/24 05:48:56;;;;;;;;;;;20.30;99.90;;;;;;5074489;28;19950;-58
2021/07/24 05:51:45;;;;;;;;;;;20.60;99.90;;;;;;5076304;28;19924;-59
2021/07/24 05:54:35;;;;;;;;;;;20.60;99.90;;;;;;5076507;28;20156;-59
2021/07/24 05:57:23;;;;;;;;;;;20.80;99.90;;;;;;5080629;28;20022;-58
2021/07/24 06:00:14;;;;;;;;;;;21.20;99.90;;;;;;5069371;28;20305;-59
2021/07/24 06:03:03;;;;;;;;;;;21.40;99.90;;;;;;5079176;28;20296;-59
2021/07/24 06:05:53;;;;;;;;;;;21.60;99.90;;;;;;5068885;28;19970;-59
2021/07/24 06:08:42;;;;;;;;;;;21.50;99.90;;;;;;5076263;28;19963;-59
2021/07/24 06:11:34;;;;;;;;;;;21.70;99.90;;;;;;5073994;28;19931;-59
2021/07/24 06:14:41;;;;;;;;;;;21.80;99.90;;;;;;5073972;28;20383;-59
2021/07/24 06:17:32;;;;;;;;;;;22.20;99.90;;;;;;5076217;28;19935;-59
2021/07/24 06:20:25;;;;;;;;;;;22.20;99.90;;;;;;5085279;28;19931;-59
2021/07/24 06:23:15;;;;;;;;;;;22.60;99.90;;;;;;5079662;28;20015;-59
2021/07/24 06:26:04;;;;;;;;;;;22.70;99.90;;;;;;5074706;28;19928;-59
2021/07/24 06:28:54;;;;;;;;;;;23.20;99.90;;;;;;5072492;28;20045;-59
2021/07/24 06:31:43;;;;;;;;;;;23.20;99.90;;;;;;5072721;28;19924;-59
2021/07/24 06:34:32;;;;;;;;;;;22.90;99.90;;;;;;5079045;28;20448;-59
2021/07/24 06:37:20;;;;;;;;;;;23.40;99.90;;;;;;5084143;28;20007;-59
2021/07/24 06:40:10;;;;;;;;;;;24.10;99.90;;;;;;5082655;28;19951;-59
2021/07/24 06:42:59;;;;;;;;;;;24.50;99.90;;;;;;5073162;28;19966;-59
2021/07/24 06:45:49;;;;;;;;;;;24.90;99.00;;;;;;5076679;28;20097;-59
2021/07/24 06:48:38;;;;;;;;;;;24.50;98.10;;;;;;5090381;28;19925;-59
2021/07/24 06:51:26;;;;;;;;;;;24.00;98.70;;;;;;5098112;28;19978;-60
2021/07/24 06:54:14;;;;;;;;;;;23.30;99.90;;;;;;5092597;28;20003;-60
2021/07/24 06:57:03;;;;;;;;;;;23.20;99.90;;;;;;5099297;28;19931;-59
2021/07/24 06:59:51;;;;;;;;;;;23.70;99.90;;;;;;5098348;28;19985;-59
2021/07/24 07:02:41;;;;;;;;;;;24.30;99.90;;;;;;5077604;28;19928;-59
2021/07/24 07:05:32;;;;;;;;;;;24.80;97.80;;;;;;5078152;28;19977;-59
2021/07/24 07:08:21;;;;;;;;;;;26.00;97.20;;;;;;5076815;28;19935;-59
2021/07/24 07:11:13;;;;;;;;;;;25.80;97.20;;;;;;5078765;28;19925;-59
2021/07/24 07:14:01;;;;;;;;;;;25.30;98.30;;;;;;5075125;28;19924;-60
2021/07/24 07:16:49;;;;;;;;;;;25.10;97.90;;;;;;5076032;28;19928;-59
2021/07/24 07:19:40;;;;;;;;;;;25.40;97.20;;;;;;5076865;28;19995;-59
2021/07/24 07:22:29;;;;;;;;;;;25.70;97.40;;;;;;5073859;28;20010;-60
2021/07/24 07:25:17;;;;;;;;;;;25.90;97.40;;;;;;5081679;28;19936;-60
2021/07/24 07:28:10;;;;;;;;;;;26.10;97.60;;;;;;5083446;28;20015;-61
2021/07/24 07:30:58;;;;;;;;;;;27.20;94.80;;;;;;5071279;28;19984;-60
2021/07/24 07:33:47;;;;;;;;;;;29.00;92.40;;;;;;5083139;28;20015;-60
2021/07/24 07:36:37;;;;;;;;;;;28.90;91.60;;;;;;5090857;28;20007;-60
2021/07/24 07:39:25;;;;;;;;;;;28.70;91.20;;;;;;5098208;28;19931;-60
2021/07/24 07:42:14;;;;;;;;;;;28.60;92.10;;;;;;5096237;28;20743;-59
2021/07/24 07:45:03;;;;;;;;;;;28.10;91.00;;;;;;5083466;28;19924;-59
2021/07/24 07:47:52;;;;;;;;;;;28.60;90.70;;;;;;5107876;28;19972;-60
2021/07/24 07:50:41;;;;;;;;;;;28.80;89.10;;;;;;5109118;28;20086;-59
2021/07/24 07:53:31;;;;;;;;;;;28.20;90.70;;;;;;5108912;28;19923;-63
2021/07/24 07:56:20;;;;;;;;;;;28.60;90.30;;;;;;5109258;28;19934;-60
2021/07/24 07:59:08;;;;;;;;;;;29.60;88.80;;;;;;5106788;28;19930;-60
2021/07/24 08:01:57;;;;;;;;;;;30.40;85.10;;;;;;5101614;28;19931;-59
2021/07/24 08:04:47;;;;;;;;;;;30.30;83.30;;;;;;5105687;28;19924;-60
2021/07/24 08:07:36;;;;;;;;;;;29.30;84.20;;;;;;5110333;28;19924;-60
2021/07/24 08:10:26;;;;;;;;;;;28.10;87.40;;;;;;5105372;28;19932;-59
2021/07/24 08:13:15;;;;;;;;;;;27.00;91.70;;;;;;5108698;28;19939;-60
2021/07/24 08:16:03;;;;;;;;;;;26.60;92.40;;;;;;5104662;28;19986;-60
2021/07/24 08:18:52;;;;;;;;;;;28.70;89.50;;;;;;5108447;28;20019;-59
2021/07/24 08:21:40;;;;;;;;;;;30.60;83.30;;;;;;5107273;28;19928;-59
2021/07/24 08:24:29;;;;;;;;;;;30.80;81.60;;;;;;5110340;28;20240;-60
2021/07/24 08:27:19;;;;;;;;;;;32.50;76.00;;;;;;5108410;28;19931;-59
2021/07/24 08:30:09;;;;;;;;;;;33.30;70.40;;;;;;5099429;28;19931;-59
2021/07/24 08:32:59;;;;;;;;;;;32.70;70.80;;;;;;5106498;28;20804;-60
2021/07/24 08:35:48;;;;;;;;;;;35.30;63.50;;;;;;5108594;28;19931;-60
2021/07/24 08:38:38;;;;;;;;;;;33.70;62.90;;;;;;5106902;28;20003;-59
2021/07/24 08:41:27;;;;;;;;;;;32.30;65.70;;;;;;5109924;28;19924;-62
2021/07/24 08:44:17;;;;;;;;;;;32.60;63.80;;;;;;5110922;28;19924;-59
2021/07/24 08:47:05;;;;;;;;;;;31.30;65.80;;;;;;5105146;28;19935;-60
2021/07/24 08:49:54;;;;;;;;;;;31.60;66.60;;;;;;5109987;28;20343;-60
2021/07/24 08:52:43;;;;;;;;;;;31.10;67.90;;;;;;5109650;28;19932;-60
2021/07/24 08:55:33;;;;;;;;;;;30.00;71.60;;;;;;5109753;28;19956;-60
2021/07/24 08:58:22;;;;;;;;;;;28.80;75.40;;;;;;5110895;28;19924;-60
2021/07/24 09:01:17;;;;;;;;;;;30.00;72.30;;;;;;5104828;28;20411;-60
2021/07/24 09:04:07;;;;;;;;;;;30.60;67.20;;;;;;5107505;28;20401;-59
2021/07/24 09:06:58;;;;;;;;;;;31.50;67.70;;;;;;5104193;28;19954;-59
2021/07/24 09:09:47;;;;;;;;;;;32.90;65.20;;;;;;5105982;28;19924;-59
2021/07/24 09:12:36;;;;;;;;;;;37.10;57.40;;;;;;5094885;28;19923;-59
2021/07/24 09:15:25;;;;;;;;;;;34.70;56.90;;;;;;5101090;28;19923;-59
2021/07/24 09:18:15;;;;;;;;;;;33.50;59.80;;;;;;5100516;28;19974;-60
2021/07/24 09:21:04;;;;;;;;;;;33.90;57.60;;;;;;5101781;28;19952;-60
2021/07/24 09:23:53;;;;;;;;;;;33.80;55.80;;;;;;5097720;28;19928;-61
2021/07/24 09:26:42;;;;;;;;;;;33.50;58.10;;;;;;5098875;28;19960;-60
2021/07/24 09:29:55;;;;;;;;;;;32.70;59.20;;;;;;5100554;28;20022;-60
2021/07/24 09:33:00;;;;;;;;;;;33.00;58.90;;;;;;5105059;28;19927;-60
2021/07/24 09:35:53;;;;;;;;;;;33.70;58.20;;;;;;5111018;28;20379;-59
2021/07/24 09:38:42;;;;;;;;;;;34.60;57.70;;;;;;5103631;28;19923;-59
2021/07/24 09:41:30;;;;;;;;;;;32.10;60.40;;;;;;5117116;28;19924;-61
2021/07/24 09:44:28;;;;;;;;;;;31.00;63.60;;;;;;5120727;28;19931;-59
2021/07/24 09:47:29;;;;;;;;;;;30.70;68.20;;;;;;5114886;28;19924;-65
2021/07/24 09:50:18;;;;;;;;;;;30.50;63.20;;;;;;5119653;28;19949;-58
2021/07/24 09:53:07;;;;;;;;;;;30.70;64.90;;;;;;5118600;28;19935;-58
2021/07/24 09:55:56;;;;;;;;;;;30.70;63.50;;;;;;5115744;28;20012;-60
2021/07/24 09:58:45;;;;;;;;;;;30.40;65.50;;;;;;5113926;28;19934;-60
2021/07/24 10:01:34;;;;;;;;;;;30.50;66.90;;;;;;5110829;28;19947;-59
2021/07/24 10:04:24;;;;;;;;;;;30.20;63.40;;;;;;5116900;28;19936;-60
2021/07/24 10:07:13;;;;;;;;;;;29.70;66.30;;;;;;5119796;28;19962;-61
2021/07/24 10:10:04;;;;;;;;;;;29.40;68.30;;;;;;5119879;28;19924;-63
2021/07/24 10:12:52;;;;;;;;;;;29.50;67.00;;;;;;5120349;28;19955;-60
2021/07/24 10:15:42;;;;;;;;;;;29.50;66.10;;;;;;5121180;28;19924;-59
2021/07/24 10:18:55;;;;;;;;;;;29.30;67.10;;;;;;5124549;28;19930;-60
2021/07/24 10:21:44;;;;;;;;;;;29.00;66.40;;;;;;5125745;28;20038;-60
2021/07/24 10:24:33;;;;;;;;;;;28.40;68.30;;;;;;5117570;28;20430;-60
2021/07/24 10:27:25;;;;;;;;;;;28.60;67.10;;;;;;5125131;28;19931;-59
2021/07/24 10:30:14;;;;;;;;;;;28.90;64.90;;;;;;5122478;28;19927;-60
2021/07/24 10:33:03;;;;;;;;;;;29.30;65.50;;;;;;5109416;28;20362;-59
2021/07/24 10:36:10;;;;;;;;;;;29.10;65.40;;;;;;5112663;28;20343;-59
2021/07/24 10:38:59;;;;;;;;;;;28.80;64.20;;;;;;5113890;28;20227;-58
2021/07/24 10:41:48;;;;;;;;;;;28.60;64.80;;;;;;5111687;28;20048;-60
2021/07/24 10:44:39;;;;;;;;;;;28.20;66.20;;;;;;5112565;28;20049;-59
2021/07/24 10:47:27;;;;;;;;;;;28.00;66.50;;;;;;5100732;28;19963;-60
2021/07/24 10:50:17;;;;;;;;;;;27.80;67.90;;;;;;5110762;28;19935;-60
2021/07/24 10:53:12;;;;;;;;;;;27.60;69.70;;;;;;5109292;28;19944;-59
2021/07/24 10:56:26;;;;;;;;;;;27.50;68.40;;;;;;5105619;28;20351;-59
2021/07/24 10:59:19;;;;;;;;;;;27.40;70.80;;;;;;5105976;28;20469;-59
2021/07/24 11:02:12;;;;;;;;;;;27.30;73.00;;;;;;5109307;28;19924;-59
2021/07/24 11:05:22;;;;;;;;;;;27.10;74.00;;;;;;5106394;28;19965;-58
2021/07/24 11:08:14;;;;;;;;;;;27.10;79.40;;;;;;5109292;28;19962;-59
2021/07/24 11:11:09;;;;;;;;;;;27.30;77.20;;;;;;5110458;28;20335;-59
2021/07/24 11:13:57;;;;;;;;;;;27.30;77.10;;;;;;5109477;28;19980;-59
2021/07/24 11:17:04;;;;;;;;;;;27.40;75.20;;;;;;5111507;28;19935;-59
2021/07/24 11:20:12;;;;;;;;;;;27.30;75.60;;;;;;5103398;28;19923;-59
2021/07/24 11:23:05;;;;;;;;;;;27.30;77.40;;;;;;5105912;28;19931;-59
2021/07/24 11:26:00;;;;;;;;;;;27.50;75.90;;;;;;5111949;28;19931;-60
2021/07/24 11:28:50;;;;;;;;;;;27.40;77.10;;;;;;5113117;28;19938;-59
2021/07/24 11:31:42;;;;;;;;;;;27.20;76.80;;;;;;5112210;28;20319;-59
2021/07/24 11:34:31;;;;;;;;;;;27.00;77.50;;;;;;5098253;28;19928;-58
2021/07/24 11:40:57;;;;;;;;;;;27.20;78.20;;;;;;5102819;28;19932;-59
2021/07/24 11:43:45;;;;;;;;;;;27.50;79.20;;;;;;5104583;28;19933;-59
2021/07/24 11:46:34;;;;;;;;;;;27.30;78.50;;;;;;5101637;28;19943;-58
2021/07/24 11:49:23;;;;;;;;;;;27.40;76.90;;;;;;5104840;28;20359;-58
2021/07/24 11:52:12;;;;;;;;;;;27.30;77.20;;;;;;5104717;28;20008;-58
2021/07/24 11:55:00;;;;;;;;;;;27.50;80.40;;;;;;5105614;28;19934;-58
2021/07/24 11:57:50;;;;;;;;;;;27.30;80.80;;;;;;5102954;28;20393;-58
2021/07/24 12:00:40;;;;;;;;;;;27.10;82.70;;;;;;5105004;28;19934;-60
2021/07/24 12:03:30;;;;;;;;;;;26.90;82.80;;;;;;5103930;28;19946;-61
2021/07/24 12:06:19;;;;;;;;;;;26.80;84.30;;;;;;5104511;28;21183;-59
2021/07/24 12:09:08;;;;;;;;;;;26.50;87.50;;;;;;5091132;28;19939;-59
2021/07/24 12:11:58;;;;;;;;;;;26.50;89.40;;;;;;5104615;28;20124;-59
2021/07/24 12:14:54;;;;;;;;;;;26.40;88.70;;;;;;5104299;28;19938;-59
2021/07/24 12:17:45;;;;;;;;;;;26.40;84.20;;;;;;5102638;28;20260;-58
2021/07/24 12:20:34;;;;;;;;;;;26.70;83.70;;;;;;5104576;28;19938;-59
2021/07/24 12:23:24;;;;;;;;;;;27.20;83.50;;;;;;5108408;28;19924;-59
2021/07/24 12:26:14;;;;;;;;;;;27.70;82.60;;;;;;5103233;28;19932;-59
2021/07/24 12:29:21;;;;;;;;;;;28.00;81.30;;;;;;5104052;28;20008;-59
2021/07/24 12:32:12;;;;;;;;;;;28.30;81.40;;;;;;5101225;28;19931;-59
2021/07/24 12:35:13;;;;;;;;;;;28.30;75.50;;;;;;5102041;27;19940;-59
2021/07/24 12:38:04;;;;;;;;;;;28.20;79.90;;;;;;5084554;28;20263;-59
2021/07/24 12:41:03;;;;;;;;;;;28.00;76.80;;;;;;5101153;28;19924;-59
2021/07/24 12:44:05;;;;;;;;;;;27.90;77.20;;;;;;5102805;28;19932;-58
2021/07/24 12:47:10;;;;;;;;;;;28.40;77.40;;;;;;5102323;28;19932;-59
2021/07/24 12:50:12;;;;;;;;;;;28.40;75.80;;;;;;5101699;28;19928;-59
2021/07/24 12:53:00;;;;;;;;;;;28.40;77.20;;;;;;5100421;28;20366;-59
2021/07/24 12:55:53;;;;;;;;;;;28.20;76.20;;;;;;5103778;28;19935;-59
2021/07/24 12:58:41;;;;;;;;;;;28.00;75.10;;;;;;5102623;28;20068;-59
2021/07/24 13:01:30;;;;;;;;;;;27.80;77.30;;;;;;5099564;28;19971;-58
2021/07/24 13:04:19;;;;;;;;;;;27.70;78.40;;;;;;5101655;28;19928;-59
2021/07/24 13:07:09;;;;;;;;;;;27.60;81.30;;;;;;5100685;28;20379;-59
2021/07/24 13:09:59;;;;;;;;;;;27.30;80.00;;;;;;5101110;28;19931;-59
2021/07/24 13:12:48;;;;;;;;;;;27.00;78.20;;;;;;5097187;28;19931;-59
2021/07/24 13:15:37;;;;;;;;;;;26.90;81.70;;;;;;5102000;28;19935;-59
2021/07/24 13:18:26;;;;;;;;;;;26.90;81.10;;;;;;5100730;28;19924;-59
2021/07/24 13:21:15;;;;;;;;;;;27.00;80.50;;;;;;5100415;28;19943;-58
2021/07/24 13:24:07;;;;;;;;;;;26.80;79.30;;;;;;5100776;28;19932;-59
2021/07/24 13:30:02;;;;;;;;;;;26.70;81.30;;;;;;5100465;28;20003;-59
2021/07/24 13:32:51;;;;;;;;;;;26.50;83.90;;;;;;5098079;28;19978;-59
2021/07/24 13:35:41;;;;;;;;;;;26.30;84.40;;;;;;5103285;28;19932;-58
2021/07/24 13:38:29;;;;;;;;;;;26.10;86.00;;;;;;5068010;28;19931;-58
2021/07/24 13:41:19;;;;;;;;;;;25.90;87.60;;;;;;5072981;28;19992;-59
2021/07/24 13:44:10;;;;;;;;;;;25.80;87.90;;;;;;5062621;28;19925;-58
2021/07/24 13:46:58;;;;;;;;;;;25.80;90.40;;;;;;5060419;28;20340;-59
2021/07/24 13:49:47;;;;;;;;;;;25.70;90.70;;;;;;5059301;28;19939;-59
2021/07/24 13:52:36;;;;;;;;;;;25.50;92.00;;;;;;5058154;28;19933;-59
2021/07/24 13:55:24;;;;;;;;;;;24.90;94.60;;;;;;5066458;28;19931;-59
2021/07/24 13:58:14;;;;;;;;;;;24.10;98.70;;;;;;5055939;28;20405;-59
2021/07/24 14:01:03;;;;;;;;;;;23.90;99.90;;;;;;5049790;28;20011;-59
2021/07/24 14:03:52;;;;;;;;;;;23.60;99.90;;;;;;5055069;28;19958;-59
2021/07/24 14:06:40;;;;;;;;;;;23.80;99.90;;;;;;5060081;28;20040;-59
2021/07/24 14:09:29;;;;;;;;;;;24.10;99.90;;;;;;5061764;28;20392;-59
2021/07/24 14:12:20;;;;;;;;;;;24.10;99.90;;;;;;5063609;28;20029;-59
2021/07/24 14:15:31;;;;;;;;;;;24.10;99.90;;;;;;5058719;28;19925;-59
2021/07/24 14:18:20;;;;;;;;;;;23.60;99.90;;;;;;5055209;28;19925;-59
2021/07/24 14:21:11;;;;;;;;;;;23.50;99.90;;;;;;5058207;28;19930;-59
2021/07/24 14:24:00;;;;;;;;;;;23.10;99.90;;;;;;5059886;28;19931;-59
2021/07/24 14:26:49;;;;;;;;;;;23.00;99.90;;;;;;5063023;28;19924;-60
2021/07/24 14:29:37;;;;;;;;;;;22.90;99.90;;;;;;5062785;28;20045;-59
2021/07/24 14:32:32;;;;;;;;;;;22.80;99.90;;;;;;5056833;28;19924;-58
2021/07/24 14:35:20;;;;;;;;;;;22.70;99.90;;;;;;5064301;28;19924;-59
2021/07/24 14:38:10;;;;;;;;;;;22.30;99.90;;;;;;5105377;27;19923;-59
2021/07/24 14:40:59;;;;;;;;;;;21.50;99.90;;;;;;5111406;28;19924;-59
2021/07/24 14:43:48;;;;;;;;;;;20.90;99.90;;;;;;5103040;28;19936;-59
2021/07/24 14:46:37;;;;;;;;;;;20.60;99.90;;;;;;5095034;28;20284;-59
2021/07/24 14:49:27;;;;;;;;;;;20.50;99.90;;;;;;5104856;28;19928;-59
2021/07/24 14:52:40;;;;;;;;;;;20.50;99.90;;;;;;5105569;28;20403;-59
2021/07/24 14:55:29;;;;;;;;;;;20.60;99.90;;;;;;5102545;28;19924;-59
2021/07/24 14:58:18;;;;;;;;;;;20.60;99.90;;;;;;5105517;28;19943;-59
2021/07/24 15:01:10;;;;;;;;;;;20.70;99.90;;;;;;5102399;28;20026;-59
2021/07/24 15:03:59;;;;;;;;;;;20.80;99.90;;;;;;5107061;28;19934;-59
2021/07/24 15:06:49;;;;;;;;;;;20.90;99.90;;;;;;5108845;28;19939;-59
2021/07/24 15:09:38;;;;;;;;;;;21.00;99.90;;;;;;5105879;28;19928;-59
2021/07/24 15:12:27;;;;;;;;;;;21.10;99.90;;;;;;5107559;28;19931;-58
2021/07/24 15:15:16;;;;;;;;;;;21.10;99.90;;;;;;5104540;28;19928;-57
2021/07/24 15:18:05;;;;;;;;;;;21.20;99.90;;;;;;5107821;27;20436;-57
2021/07/24 15:20:54;;;;;;;;;;;21.40;99.90;;;;;;5103588;28;20256;-57
2021/07/24 15:23:44;;;;;;;;;;;21.60;99.90;;;;;;5109007;28;19923;-57
2021/07/24 15:26:32;;;;;;;;;;;21.90;99.90;;;;;;5103709;28;19930;-57
2021/07/24 15:29:21;;;;;;;;;;;22.10;99.90;;;;;;5110071;28;19931;-57
2021/07/24 15:32:10;;;;;;;;;;;22.40;99.90;;;;;;5101545;28;19990;-57
2021/07/24 15:35:01;;;;;;;;;;;22.40;99.90;;;;;;5097538;28;19935;-57
2021/07/24 15:37:49;;;;;;;;;;;22.20;99.90;;;;;;5110453;28;20418;-58
2021/07/24 15:40:39;;;;;;;;;;;22.30;99.90;;;;;;5113444;28;19932;-57
2021/07/24 15:43:28;;;;;;;;;;;22.40;99.90;;;;;;5099826;28;19927;-57
2021/07/24 15:46:17;;;;;;;;;;;22.50;99.90;;;;;;5107103;28;20295;-57
2021/07/24 15:49:06;;;;;;;;;;;22.60;99.90;;;;;;5108687;28;20220;-57
2021/07/24 15:51:54;;;;;;;;;;;22.60;99.90;;;;;;5100593;28;19932;-58
2021/07/24 15:54:43;;;;;;;;;;;22.70;99.90;;;;;;5096192;28;19978;-58
2021/07/24 15:57:32;;;;;;;;;;;22.80;99.90;;;;;;5105106;28;20331;-59
2021/07/24 16:00:21;;;;;;;;;;;22.90;99.90;;;;;;5097510;28;20594;-58
2021/07/24 16:03:09;;;;;;;;;;;22.90;99.90;;;;;;5098762;28;19924;-58
2021/07/24 16:05:59;;;;;;;;;;;23.00;99.90;;;;;;5103927;28;19927;-59
2021/07/24 16:08:48;;;;;;;;;;;23.00;99.90;;;;;;5097638;28;19924;-57
2021/07/24 16:11:36;;;;;;;;;;;23.20;99.90;;;;;;5102494;28;19924;-58
2021/07/24 16:14:26;;;;;;;;;;;23.20;99.90;;;;;;5104380;28;19927;-59
2021/07/24 16:17:16;;;;;;;;;;;23.30;99.90;;;;;;5094448;28;19947;-59
2021/07/24 16:20:05;;;;;;;;;;;23.40;99.90;;;;;;5102576;28;19963;-58
2021/07/24 16:22:54;;;;;;;;;;;23.70;99.90;;;;;;5100280;28;19927;-58
2021/07/24 16:25:42;;;;;;;;;;;24.00;99.90;;;;;;5100462;28;19977;-58
2021/07/24 16:28:31;;;;;;;;;;;23.90;99.90;;;;;;5103756;28;19928;-59
2021/07/24 16:31:21;;;;;;;;;;;23.80;99.90;;;;;;5096515;28;19932;-58
2021/07/24 16:34:11;;;;;;;;;;;23.60;99.90;;;;;;5104827;28;19924;-59
2021/07/24 16:37:00;;;;;;;;;;;23.50;99.90;;;;;;5102062;28;20225;-58
2021/07/24 16:39:48;;;;;;;;;;;23.50;99.90;;;;;;5106540;28;19923;-59
2021/07/24 16:42:37;;;;;;;;;;;23.60;99.90;;;;;;5103401;28;20367;-58
2021/07/24 16:45:27;;;;;;;;;;;23.70;99.90;;;;;;5098711;28;19946;-59
2021/07/24 16:48:20;;;;;;;;;;;23.60;99.90;;;;;;5104347;28;20582;-58